Time;durP1;ratioP1;P1;durP2;ratioP2;P2;SDS_P1;SDS_P2;PMS_P1;PMS_P2;Temp;Humidity;BMP_temperature;BMP_pressure;BME280_temperature;BME280_humidity;BME280_pressure;Samples;Min_cycle;Max_cycle;Signal;HPM_P1;HPM_P2
2021/08/29 00:00:10;;;;;;;15.25;7.00;;;;;;;23.19;43.47;101783.22;4429087;32;20451;-67
2021/08/29 00:02:36;;;;;;;14.70;7.62;;;;;;;23.23;43.68;101778.09;4430480;32;20398;-67
2021/08/29 00:05:03;;;;;;;18.08;8.00;;;;;;;23.02;44.11;101776.47;4427699;32;20087;-66
2021/08/29 00:07:29;;;;;;;16.70;8.00;;;;;;;23.17;44.10;101782.97;4426037;32;20091;-67
2021/08/29 00:09:55;;;;;;;12.80;7.45;;;;;;;23.11;44.07;101779.22;4427954;32;20089;-67
2021/08/29 00:12:21;;;;;;;13.75;6.57;;;;;;;23.05;44.31;101772.63;4421780;32;20056;-67
2021/08/29 00:14:47;;;;;;;12.73;6.90;;;;;;;22.92;44.62;101775.03;4429807;32;20516;-67
2021/08/29 00:17:13;;;;;;;15.40;7.37;;;;;;;22.85;44.58;101773.38;4428305;32;20081;-67
2021/08/29 00:19:39;;;;;;;11.38;6.43;;;;;;;22.84;44.71;101768.13;4427454;32;20836;-67
2021/08/29 00:22:05;;;;;;;12.80;5.82;;;;;;;22.76;44.58;101775.56;4427005;32;20251;-67
2021/08/29 00:24:31;;;;;;;12.23;5.62;;;;;;;22.63;44.67;101775.09;4427409;32;20100;-67
2021/08/29 00:26:56;;;;;;;11.02;6.40;;;;;;;22.72;44.37;101775.78;4427829;32;20053;-67
2021/08/29 00:29:22;;;;;;;12.60;5.72;;;;;;;22.85;44.30;101769.69;4424711;32;20038;-67
2021/08/29 00:31:47;;;;;;;14.05;6.22;;;;;;;22.40;45.48;101776.00;4425297;32;20029;-67
2021/08/29 00:34:13;;;;;;;11.20;6.30;;;;;;;22.67;44.76;101773.59;4429873;32;20037;-67
2021/08/29 00:36:39;;;;;;;11.15;5.80;;;;;;;22.72;44.71;101766.38;4427275;32;20048;-67
2021/08/29 00:39:05;;;;;;;17.15;5.90;;;;;;;22.80;44.62;101773.28;4425420;32;20110;-67
2021/08/29 00:41:32;;;;;;;11.15;5.40;;;;;;;22.68;44.59;101766.59;4424637;32;20025;-67
2021/08/29 00:44:02;;;;;;;12.73;6.25;;;;;;;22.89;44.19;101768.19;4428852;32;20398;-67
2021/08/29 00:46:27;;;;;;;16.08;5.57;;;;;;;22.78;44.47;101775.84;4427092;32;20091;-67
2021/08/29 00:48:53;;;;;;;12.57;5.47;;;;;;;22.87;44.25;101781.47;4426965;32;20111;-67
2021/08/29 00:51:19;;;;;;;12.27;6.22;;;;;;;22.84;44.34;101766.06;4426620;32;20091;-67
2021/08/29 00:53:48;;;;;;;15.68;6.03;;;;;;;22.84;44.36;101771.78;4425049;32;20077;-67
2021/08/29 00:56:15;;;;;;;12.50;6.05;;;;;;;23.04;43.99;101768.94;4427513;32;20097;-66
2021/08/29 00:58:42;;;;;;;11.60;5.50;;;;;;;22.94;44.29;101758.09;4427039;32;20038;-67
2021/08/29 01:01:09;;;;;;;12.02;5.87;;;;;;;22.78;44.59;101762.31;4426524;32;20122;-67
2021/08/29 01:03:36;;;;;;;10.35;6.03;;;;;;;22.82;44.31;101762.06;4427890;32;20086;-66
2021/08/29 01:06:28;;;;;;;16.55;6.00;;;;;;;22.83;44.55;101760.81;4425927;32;20490;-66
2021/08/29 01:09:01;;;;;;;13.07;6.40;;;;;;;23.10;43.93;101766.94;4430344;32;20455;-66
2021/08/29 01:11:27;;;;;;;14.57;6.53;;;;;;;23.06;44.01;101757.75;4423991;32;20377;-66
2021/08/29 01:14:01;;;;;;;13.70;6.95;;;;;;;22.96;44.25;101759.19;4426652;32;20408;-66
2021/08/29 01:16:32;;;;;;;14.57;6.65;;;;;;;23.13;43.94;101765.13;4427171;32;20136;-66
2021/08/29 01:19:00;;;;;;;13.30;6.82;;;;;;;23.05;44.04;101766.88;4428131;32;20029;-66
2021/08/29 01:21:29;;;;;;;15.02;6.37;;;;;;;22.91;44.36;101761.94;4423837;32;20152;-66
2021/08/29 01:24:14;;;;;;;15.75;6.85;;;;;;;23.01;44.12;101767.06;4425605;32;20183;-67
2021/08/29 01:29:31;;;;;;;17.00;7.20;;;;;;;23.21;44.02;101767.09;4005682;31;15122872;-67
2021/08/29 01:31:59;;;;;;;16.25;7.00;;;;;;;23.21;44.02;101767.09;4465312;32;20109;-66
2021/08/29 01:34:26;;;;;;;17.52;6.87;;;;;;;22.77;44.61;101771.41;4469064;32;20073;-66
2021/08/29 01:36:54;;;;;;;12.40;6.95;;;;;;;22.50;44.72;101768.87;4465988;32;20052;-66
2021/08/29 01:39:21;;;;;;;15.32;7.05;;;;;;;22.68;44.75;101771.53;4464915;32;20107;-66
2021/08/29 01:41:49;;;;;;;20.25;7.47;;;;;;;22.63;44.85;101772.22;4466935;32;20056;-66
2021/08/29 01:44:17;;;;;;;12.88;6.87;;;;;;;22.73;44.61;101765.87;4468195;32;20080;-66
2021/08/29 01:46:44;;;;;;;15.52;6.82;;;;;;;22.74;44.67;101766.66;4469656;32;20094;-66
2021/08/29 01:49:11;;;;;;;12.32;6.80;;;;;;;22.59;44.69;101771.66;4465738;32;20137;-66
2021/08/29 01:51:39;;;;;;;15.02;6.62;;;;;;;22.69;44.54;101762.44;4463668;32;20476;-66
2021/08/29 01:54:06;;;;;;;15.35;6.70;;;;;;;22.72;44.48;101763.50;4464895;32;20462;-66
2021/08/29 01:57:12;;;;;;;14.73;6.45;;;;;;;22.66;44.67;101765.50;4467374;32;20521;-66
2021/08/29 01:59:37;;;;;;;14.30;6.62;;;;;;;22.79;44.27;101768.81;4465819;32;20084;-66
2021/08/29 02:02:04;;;;;;;10.90;5.65;;;;;;;22.49;44.80;101773.03;4464422;32;20036;-69
2021/08/29 02:04:30;;;;;;;20.15;7.07;;;;;;;22.64;44.63;101768.84;4465972;32;20414;-69
2021/08/29 02:09:51;;;;;;;13.10;6.60;;;;;;;23.27;44.09;101773.75;3986891;32;15022125;-71
2021/08/29 02:12:18;;;;;;;14.15;6.55;;;;;;;23.27;44.09;101773.75;4441834;32;20064;-70
2021/08/29 02:14:51;;;;;;;13.50;6.32;;;;;;;22.81;45.11;101772.00;4442889;32;20618;-70
2021/08/29 02:17:20;;;;;;;13.15;5.82;;;;;;;23.03;45.64;101775.19;4443646;32;20081;-70
2021/08/29 02:19:47;;;;;;;17.85;6.43;;;;;;;23.05;45.81;101779.16;4443876;32;20044;-70
2021/08/29 02:22:14;;;;;;;13.57;6.07;;;;;;;23.16;45.76;101779.28;4440765;32;20038;-70
2021/08/29 02:24:40;;;;;;;14.18;6.82;;;;;;;23.22;45.75;101785.09;4443004;32;20033;-70
2021/08/29 02:27:05;;;;;;;12.37;5.90;;;;;;;23.25;45.64;101784.12;4442127;32;20049;-70
2021/08/29 02:29:31;;;;;;;14.13;6.47;;;;;;;23.28;45.47;101783.13;4442387;32;20363;-70
2021/08/29 02:31:57;;;;;;;17.27;5.70;;;;;;;23.34;45.31;101781.94;4441218;32;20157;-70
2021/08/29 02:34:23;;;;;;;17.92;7.12;;;;;;;23.36;45.22;101784.28;4438446;32;20156;-70
2021/08/29 02:36:49;;;;;;;17.62;7.70;;;;;;;23.25;45.77;101781.25;4441626;32;20065;-70
2021/08/29 02:39:18;;;;;;;15.70;7.15;;;;;;;23.14;46.23;101775.34;4441744;32;20068;-70
2021/08/29 02:41:44;;;;;;;15.18;7.57;;;;;;;23.32;45.97;101783.72;4441383;32;20469;-70
2021/08/29 02:44:10;;;;;;;13.40;7.43;;;;;;;23.14;46.52;101783.97;4440431;32;20098;-70
2021/08/29 02:46:37;;;;;;;19.08;8.00;;;;;;;23.41;45.83;101781.47;4439981;32;20037;-70
2021/08/29 02:49:05;;;;;;;18.48;8.40;;;;;;;23.30;46.32;101786.31;4435398;32;20666;-70
2021/08/29 02:51:31;;;;;;;20.33;8.02;;;;;;;23.33;46.16;101788.97;4437666;32;20689;-70
2021/08/29 02:53:57;;;;;;;16.52;8.43;;;;;;;23.25;46.29;101784.94;4442009;32;20026;-70
2021/08/29 02:56:23;;;;;;;16.75;7.80;;;;;;;23.10;46.57;101778.44;4442659;32;20450;-70
2021/08/29 02:58:49;;;;;;;15.63;7.87;;;;;;;23.27;46.11;101781.56;4441786;32;20723;-70
2021/08/29 03:01:15;;;;;;;21.90;8.55;;;;;;;23.28;46.22;101778.19;4440715;32;20025;-70
2021/08/29 03:03:41;;;;;;;18.35;8.55;;;;;;;23.13;46.49;101788.91;4440474;32;20402;-70
2021/08/29 03:06:07;;;;;;;23.52;7.93;;;;;;;23.15;46.40;101780.59;4441421;32;20013;-70
2021/08/29 03:08:33;;;;;;;26.25;8.00;;;;;;;23.23;46.21;101787.50;4441905;32;20058;-70
2021/08/29 03:10:59;;;;;;;15.38;8.60;;;;;;;22.96;46.58;101785.03;4440833;32;20438;-70
2021/08/29 03:13:27;;;;;;;18.20;8.07;;;;;;;23.22;46.38;101782.22;4441388;32;20165;-70
2021/08/29 03:15:52;;;;;;;18.75;8.50;;;;;;;23.42;45.99;101782.28;4443612;32;20049;-70
2021/08/29 03:18:18;;;;;;;20.17;8.77;;;;;;;23.24;46.16;101786.25;4442266;32;20572;-70
2021/08/29 03:20:45;;;;;;;24.40;9.23;;;;;;;23.04;46.77;101785.41;4431668;32;20067;-70
2021/08/29 03:23:11;;;;;;;20.83;9.20;;;;;;;23.11;46.62;101784.97;4432436;32;20053;-70
2021/08/29 03:25:37;;;;;;;26.33;11.75;;;;;;;23.21;46.32;101783.53;4432079;32;20052;-70
2021/08/29 03:28:04;;;;;;;26.27;12.30;;;;;;;23.07;46.68;101778.66;4432020;32;20050;-70
2021/08/29 03:30:29;;;;;;;31.42;12.85;;;;;;;23.22;46.34;101783.03;4429849;32;20048;-70
2021/08/29 03:32:55;;;;;;;26.08;13.10;;;;;;;23.12;46.57;101777.94;4428726;32;20418;-70
2021/08/29 03:35:22;;;;;;;26.45;11.63;;;;;;;23.13;46.31;101782.37;4431563;32;20073;-70
2021/08/29 03:37:48;;;;;;;24.45;11.52;;;;;;;22.86;47.08;101777.81;4432183;32;20014;-70
2021/08/29 03:40:14;;;;;;;24.45;11.75;;;;;;;23.04;46.56;101779.66;4431827;32;20053;-70
2021/08/29 03:42:42;;;;;;;24.00;10.93;;;;;;;23.14;46.30;101781.09;4430859;32;20153;-70
2021/08/29 03:45:08;;;;;;;21.95;10.63;;;;;;;23.04;46.13;101786.16;4432352;32;20041;-70
2021/08/29 03:47:36;;;;;;;26.77;10.70;;;;;;;23.09;45.92;101781.78;4430892;32;20065;-70
2021/08/29 03:50:03;;;;;;;27.73;10.27;;;;;;;22.97;46.26;101777.19;4429068;32;20013;-70
2021/08/29 03:52:29;;;;;;;24.05;10.02;;;;;;;23.02;46.20;101785.09;4431565;32;20056;-70
2021/08/29 03:54:55;;;;;;;23.65;10.02;;;;;;;22.76;46.48;101782.09;4432065;32;20120;-70
2021/08/29 03:57:21;;;;;;;26.58;10.18;;;;;;;22.88;46.08;101785.91;4432149;32;20061;-70
2021/08/29 03:59:47;;;;;;;21.20;9.38;;;;;;;22.62;46.76;101787.88;4430123;32;20434;-70
2021/08/29 04:02:13;;;;;;;24.95;10.23;;;;;;;22.78;46.34;101790.22;4430784;32;20037;-70
2021/08/29 04:04:39;;;;;;;22.13;9.23;;;;;;;22.44;47.26;101788.06;4429873;32;20048;-70
2021/08/29 04:07:06;;;;;;;27.98;9.77;;;;;;;22.74;46.43;101781.03;4430277;32;20415;-69
2021/08/29 04:09:33;;;;;;;22.80;9.05;;;;;;;22.59;46.94;101788.88;4429515;32;20050;-69
2021/08/29 04:12:00;;;;;;;29.15;10.13;;;;;;;22.48;47.33;101783.69;4421679;32;20105;-69
2021/08/29 04:14:27;;;;;;;24.52;10.15;;;;;;;22.71;46.76;101784.88;4429550;32;20371;-69
2021/08/29 04:16:58;;;;;;;19.20;9.82;;;;;;;23.00;46.07;101779.06;4429200;32;20052;-69
2021/08/29 04:19:26;;;;;;;22.83;10.73;;;;;;;23.17;45.61;101786.59;4429523;32;20042;-69
2021/08/29 04:21:53;;;;;;;27.62;11.55;;;;;;;22.90;46.03;101791.97;4431175;32;20144;-69
2021/08/29 04:24:19;;;;;;;20.88;9.77;;;;;;;22.99;45.72;101788.97;4430456;32;20317;-69
2021/08/29 04:26:45;;;;;;;20.05;9.57;;;;;;;22.90;45.89;101789.87;4429853;32;20060;-69
2021/08/29 04:29:15;;;;;;;17.92;8.68;;;;;;;22.64;46.25;101788.19;4429930;32;20047;-69
2021/08/29 04:31:46;;;;;;;25.77;9.80;;;;;;;22.56;46.53;101792.72;4430810;32;20466;-69
2021/08/29 04:34:12;;;;;;;18.23;8.63;;;;;;;22.94;45.85;101789.66;4429411;32;20479;-69
2021/08/29 04:36:39;;;;;;;23.95;8.68;;;;;;;22.74;45.91;101795.38;4423944;32;20022;-69
2021/08/29 04:39:07;;;;;;;22.15;10.15;;;;;;;22.76;46.13;101793.56;4430694;32;20549;-69
2021/08/29 04:41:33;;;;;;;23.27;9.10;;;;;;;23.14;45.37;101789.72;4429720;32;20434;-69
2021/08/29 04:44:01;;;;;;;23.73;9.38;;;;;;;23.16;45.11;101787.91;4428650;32;20343;-69
2021/08/29 04:46:27;;;;;;;16.92;9.05;;;;;;;23.04;45.18;101789.03;4431432;32;20448;-69
2021/08/29 04:48:53;;;;;;;25.83;9.85;;;;;;;23.23;45.03;101793.25;4428651;32;20045;-69
2021/08/29 04:51:19;;;;;;;24.95;9.32;;;;;;;23.17;45.05;101795.22;4429509;32;20059;-69
2021/08/29 04:53:44;;;;;;;24.25;10.07;;;;;;;23.10;45.12;101789.91;4429515;32;20069;-69
2021/08/29 04:56:10;;;;;;;26.35;11.40;;;;;;;23.09;45.06;101796.94;4430720;32;20551;-69
2021/08/29 04:58:36;;;;;;;23.50;10.40;;;;;;;22.63;46.08;101798.06;4429662;32;20411;-69
2021/08/29 05:01:02;;;;;;;35.83;11.05;;;;;;;22.99;45.37;101794.72;4429667;32;20486;-69
2021/08/29 05:03:28;;;;;;;30.17;11.40;;;;;;;22.82;45.86;101797.31;4427709;32;20037;-69
2021/08/29 05:05:53;;;;;;;27.55;10.63;;;;;;;22.49;46.74;101801.72;4428946;32;20063;-69
2021/08/29 05:08:19;;;;;;;31.73;12.70;;;;;;;22.74;46.12;101801.09;4430168;32;20366;-69
2021/08/29 05:10:45;;;;;;;24.15;11.98;;;;;;;22.75;46.38;101796.94;4427652;32;20127;-69
2021/08/29 05:13:10;;;;;;;25.65;12.60;;;;;;;22.51;47.32;101807.75;4429176;32;20100;-69
2021/08/29 05:15:36;;;;;;;34.25;13.62;;;;;;;22.73;46.45;101802.41;4429247;32;20048;-69
2021/08/29 05:18:02;;;;;;;30.75;13.27;;;;;;;22.90;46.03;101806.31;4428953;32;20092;-69
2021/08/29 05:20:27;;;;;;;32.30;13.45;;;;;;;22.90;46.08;101801.38;4428780;32;20040;-69
2021/08/29 05:22:53;;;;;;;32.38;13.95;;;;;;;22.99;45.94;101809.87;4430179;32;20070;-69
2021/08/29 05:25:19;;;;;;;30.83;13.75;;;;;;;22.84;46.07;101808.31;4428980;32;20121;-69
2021/08/29 05:27:45;;;;;;;31.05;13.62;;;;;;;22.81;46.09;101818.72;4431300;32;20052;-69
2021/08/29 05:30:11;;;;;;;35.72;14.38;;;;;;;22.80;46.32;101816.34;4429574;32;20447;-69
2021/08/29 05:32:36;;;;;;;34.88;14.60;;;;;;;22.74;46.54;101819.09;4424041;32;20076;-69
2021/08/29 05:35:03;;;;;;;31.67;13.75;;;;;;;22.90;46.24;101827.22;4429368;32;20490;-69
2021/08/29 05:37:28;;;;;;;32.47;14.85;;;;;;;22.95;46.03;101823.63;4429994;32;20044;-69
2021/08/29 05:39:54;;;;;;;34.25;14.57;;;;;;;23.10;45.73;101821.50;4430920;32;20445;-69
2021/08/29 05:42:20;;;;;;;27.85;14.60;;;;;;;23.17;45.60;101831.78;4428308;32;20069;-69
2021/08/29 05:44:45;;;;;;;30.70;13.75;;;;;;;23.18;45.56;101821.88;4427309;32;20066;-69
2021/08/29 05:47:11;;;;;;;29.45;14.00;;;;;;;23.47;45.13;101827.53;4428269;32;20515;-69
2021/08/29 05:49:36;;;;;;;30.20;13.10;;;;;;;23.64;44.77;101827.75;4427865;32;20168;-69
2021/08/29 05:52:03;;;;;;;29.92;12.52;;;;;;;23.37;45.33;101820.34;4427992;32;20048;-69
2021/08/29 05:54:28;;;;;;;27.75;12.73;;;;;;;23.45;44.71;101822.31;4430806;32;20393;-69
2021/08/29 05:56:54;;;;;;;28.87;12.55;;;;;;;23.73;44.37;101830.47;4431076;32;20053;-69
2021/08/29 05:59:20;;;;;;;31.75;12.90;;;;;;;23.86;44.19;101828.00;4428962;32;20132;-70
2021/08/29 06:01:45;;;;;;;27.08;12.32;;;;;;;24.00;43.77;101830.84;4429540;32;20052;-69
2021/08/29 06:04:11;;;;;;;24.48;11.43;;;;;;;24.20;43.47;101827.13;4430253;32;20395;-69
2021/08/29 06:06:37;;;;;;;29.25;11.50;;;;;;;24.00;43.76;101827.16;4429237;32;21106;-69
2021/08/29 06:09:04;;;;;;;24.83;11.38;;;;;;;24.20;43.19;101836.53;4430112;32;20298;-69
2021/08/29 06:11:30;;;;;;;30.48;12.27;;;;;;;24.32;43.01;101823.03;4427491;32;20026;-69
2021/08/29 06:13:56;;;;;;;25.25;10.70;;;;;;;24.18;43.34;101823.97;4428121;32;20060;-69
2021/08/29 06:16:23;;;;;;;23.27;10.27;;;;;;;24.24;43.11;101827.69;4428408;32;20077;-69
2021/08/29 06:18:49;;;;;;;26.20;10.00;;;;;;;24.44;42.70;101819.78;4427313;32;20442;-69
2021/08/29 06:21:15;;;;;;;29.63;9.40;;;;;;;24.43;42.58;101821.09;4429578;32;20025;-69
2021/08/29 06:23:41;;;;;;;20.65;8.90;;;;;;;24.25;42.55;101827.19;4428949;32;20106;-69
2021/08/29 06:26:06;;;;;;;22.60;8.93;;;;;;;24.42;42.23;101822.38;4429066;32;20033;-69
2021/08/29 06:28:32;;;;;;;23.00;8.98;;;;;;;24.36;42.45;101821.53;4428176;32;20099;-69
2021/08/29 06:30:58;;;;;;;16.98;8.00;;;;;;;24.25;42.57;101835.00;4428374;32;20398;-69
2021/08/29 06:33:23;;;;;;;18.52;8.55;;;;;;;24.28;42.44;101831.91;4429658;32;20046;-69
2021/08/29 06:35:49;;;;;;;18.45;8.02;;;;;;;24.38;42.16;101836.19;4427942;32;20086;-69
2021/08/29 06:38:15;;;;;;;19.25;7.55;;;;;;;24.47;41.80;101832.34;4428905;32;20066;-69
2021/08/29 06:40:41;;;;;;;17.10;8.02;;;;;;;24.78;41.12;101827.44;4427601;32;20099;-69
2021/08/29 06:43:06;;;;;;;18.15;7.50;;;;;;;24.47;41.58;101830.28;4427581;32;20390;-69
2021/08/29 06:45:32;;;;;;;16.45;7.90;;;;;;;24.48;41.47;101822.44;4429491;32;20033;-70
2021/08/29 06:47:57;;;;;;;15.52;7.18;;;;;;;24.03;42.64;101832.72;4428380;32;20059;-69
2021/08/29 06:50:23;;;;;;;16.75;7.85;;;;;;;24.47;41.60;101838.09;4427101;32;20085;-69
2021/08/29 06:52:49;;;;;;;17.77;7.35;;;;;;;24.53;41.31;101830.31;4428213;32;20072;-69
2021/08/29 06:55:14;;;;;;;17.70;7.53;;;;;;;24.49;41.60;101827.69;4431536;32;20052;-69
2021/08/29 06:57:40;;;;;;;21.17;7.90;;;;;;;24.55;41.17;101840.03;4430378;32;20022;-69
2021/08/29 07:00:07;;;;;;;19.73;8.52;;;;;;;24.34;41.78;101841.41;4430607;32;20324;-69
2021/08/29 07:02:32;;;;;;;21.87;7.30;;;;;;;24.83;40.85;101832.44;4431859;32;20207;-69
2021/08/29 07:04:58;;;;;;;16.73;7.10;;;;;;;24.79;40.48;101831.88;4430501;32;20103;-69
2021/08/29 07:07:24;;;;;;;17.12;7.30;;;;;;;25.09;40.31;101832.34;4425468;32;20054;-69
2021/08/29 07:09:49;;;;;;;14.82;7.72;;;;;;;24.95;40.53;101830.44;4432590;32;20067;-69
2021/08/29 07:12:15;;;;;;;17.33;7.68;;;;;;;25.08;40.30;101825.03;4431817;32;20099;-69
2021/08/29 07:14:41;;;;;;;16.30;7.80;;;;;;;25.19;40.06;101836.63;4429995;32;20111;-69
2021/08/29 07:17:07;;;;;;;17.08;7.12;;;;;;;25.15;40.13;101831.09;4430626;32;20026;-69
2021/08/29 07:19:33;;;;;;;18.60;7.50;;;;;;;25.22;39.94;101832.72;4430058;32;20128;-69
2021/08/29 07:21:59;;;;;;;12.77;6.57;;;;;;;25.27;39.82;101835.62;4430293;32;20651;-71
2021/08/29 07:24:25;;;;;;;15.15;6.53;;;;;;;25.12;40.14;101826.37;4424008;32;20037;-70
2021/08/29 07:26:51;;;;;;;16.52;6.53;;;;;;;25.12;40.14;101819.81;4433069;32;20542;-70
2021/08/29 07:29:16;;;;;;;14.18;6.50;;;;;;;25.25;39.73;101826.69;4429775;32;20449;-69
2021/08/29 07:31:42;;;;;;;14.27;6.93;;;;;;;25.03;40.30;101829.44;4430416;32;20338;-69
2021/08/29 07:34:08;;;;;;;15.07;6.80;;;;;;;25.12;40.10;101819.81;4430170;32;20094;-69
2021/08/29 07:36:33;;;;;;;20.98;7.03;;;;;;;25.18;40.00;101829.28;4422701;32;21011;-69
2021/08/29 07:38:59;;;;;;;14.80;5.85;;;;;;;25.29;39.89;101838.00;4429406;32;20145;-69
2021/08/29 07:41:24;;;;;;;15.63;6.22;;;;;;;25.31;39.86;101826.72;4429008;32;20066;-69
2021/08/29 07:43:50;;;;;;;13.77;5.85;;;;;;;25.34;39.83;101832.28;4430687;32;20026;-69
2021/08/29 07:46:16;;;;;;;11.40;6.00;;;;;;;25.62;39.23;101826.66;4428550;32;20469;-69
2021/08/29 07:48:41;;;;;;;12.02;5.32;;;;;;;25.77;38.55;101832.22;4431512;32;20105;-69
2021/08/29 07:51:08;;;;;;;14.30;5.50;;;;;;;26.08;37.51;101832.09;4429850;32;20069;-69
2021/08/29 07:53:34;;;;;;;13.68;5.05;;;;;;;26.28;37.28;101829.78;4422576;32;20108;-69
2021/08/29 07:56:00;;;;;;;11.57;4.68;;;;;;;26.23;36.79;101833.44;4429997;32;20026;-69
2021/08/29 07:58:25;;;;;;;10.25;5.43;;;;;;;25.95;37.18;101831.78;4430412;32;20507;-69
2021/08/29 08:00:51;;;;;;;9.52;5.12;;;;;;;25.55;37.88;101830.03;4429120;32;20057;-69
2021/08/29 08:03:17;;;;;;;9.70;5.40;;;;;;;25.83;37.47;101828.03;4430187;32;20135;-69
2021/08/29 08:05:44;;;;;;;15.65;5.12;;;;;;;25.62;38.02;101823.78;4429906;32;20081;-69
2021/08/29 08:08:10;;;;;;;15.95;5.28;;;;;;;26.21;37.17;101832.38;4429109;32;20085;-69
2021/08/29 08:10:36;;;;;;;10.38;4.90;;;;;;;26.49;36.79;101831.13;4427451;32;20064;-69
2021/08/29 08:13:02;;;;;;;14.07;5.25;;;;;;;26.56;36.31;101826.91;4430134;32;20406;-69
2021/08/29 08:15:28;;;;;;;14.38;5.12;;;;;;;26.64;36.21;101831.69;4429450;32;20052;-69
2021/08/29 08:17:54;;;;;;;10.77;4.55;;;;;;;27.11;35.57;101833.47;4429647;32;20038;-69
2021/08/29 08:20:19;;;;;;;7.85;4.30;;;;;;;26.86;35.39;101828.78;4429786;32;20030;-69
2021/08/29 08:22:47;;;;;;;11.75;4.28;;;;;;;27.04;34.94;101836.13;4430048;32;20025;-69
2021/08/29 08:25:13;;;;;;;12.93;4.85;;;;;;;27.15;34.62;101838.97;4430404;32;20421;-69
2021/08/29 08:27:39;;;;;;;11.50;4.32;;;;;;;27.10;34.54;101842.69;4430399;32;20026;-69
2021/08/29 08:30:06;;;;;;;12.75;4.47;;;;;;;26.96;34.57;101852.41;4429488;32;20073;-69
2021/08/29 08:32:31;;;;;;;10.02;4.82;;;;;;;27.28;34.00;101844.25;4429760;32;20204;-69
2021/08/29 08:34:57;;;;;;;10.05;3.92;;;;;;;27.28;33.95;101847.94;4429282;32;20459;-69
2021/08/29 08:37:23;;;;;;;13.15;3.92;;;;;;;27.26;33.61;101849.75;4430348;32;21091;-69
2021/08/29 08:39:48;;;;;;;11.38;4.30;;;;;;;27.26;33.06;101850.56;4429759;32;20070;-69
2021/08/29 08:42:15;;;;;;;9.05;3.90;;;;;;;27.05;32.95;101857.91;4429536;32;20029;-69
2021/08/29 08:44:44;;;;;;;9.68;4.18;;;;;;;27.19;32.94;101860.50;4428316;32;20073;-69
2021/08/29 08:47:15;;;;;;;10.98;3.83;;;;;;;27.16;33.05;101857.91;4429876;32;20328;-69
2021/08/29 08:49:42;;;;;;;8.75;3.65;;;;;;;27.22;33.19;101850.00;4424702;32;20053;-70
2021/08/29 08:52:16;;;;;;;9.55;4.20;;;;;;;27.08;33.30;101851.88;4429155;32;20377;-69
2021/08/29 08:54:45;;;;;;;9.40;4.03;;;;;;;26.60;33.51;101856.31;4429741;32;20021;-69
2021/08/29 08:57:15;;;;;;;10.30;4.10;;;;;;;26.99;33.07;101852.16;4429182;32;20092;-69
2021/08/29 08:59:43;;;;;;;9.20;3.75;;;;;;;27.09;32.77;101864.22;4429169;32;20058;-69
2021/08/29 09:02:09;;;;;;;10.43;3.65;;;;;;;27.58;32.08;101868.34;4427849;32;20092;-69
2021/08/29 09:04:34;;;;;;;11.30;3.50;;;;;;;27.26;32.09;101867.91;4428757;32;20426;-69
2021/08/29 09:07:00;;;;;;;10.02;3.42;;;;;;;27.84;31.41;101881.13;4430444;32;20042;-69
2021/08/29 09:09:26;;;;;;;7.78;3.22;;;;;;;27.77;30.85;101864.34;4428481;32;20069;-69
2021/08/29 09:11:51;;;;;;;9.50;3.62;;;;;;;27.91;30.46;101871.91;4427464;32;20489;-69
2021/08/29 09:14:17;;;;;;;11.02;3.22;;;;;;;28.11;30.08;101873.66;4430287;32;20054;-69
2021/08/29 09:16:50;;;;;;;9.07;3.83;;;;;;;28.01;30.08;101873.19;4429602;32;20506;-71
2021/08/29 09:19:18;;;;;;;4.95;2.83;;;;;;;28.12;30.00;101883.91;4429164;32;20052;-69
2021/08/29 09:21:44;;;;;;;8.82;3.65;;;;;;;27.91;29.92;101883.50;4427812;32;20544;-69
2021/08/29 09:24:11;;;;;;;9.80;3.50;;;;;;;27.68;30.26;101884.09;4429754;32;20048;-69
2021/08/29 09:26:42;;;;;;;8.55;3.50;;;;;;;28.00;30.07;101883.19;4427628;32;20084;-70
2021/08/29 09:29:21;;;;;;;6.05;3.03;;;;;;;27.97;30.12;101892.16;4429465;32;20069;-69
2021/08/29 09:31:49;;;;;;;6.90;2.58;;;;;;;27.84;29.69;101895.59;4428068;32;20404;-69
2021/08/29 09:34:19;;;;;;;7.22;3.35;;;;;;;27.32;30.64;101888.13;4428831;32;20022;-69
2021/08/29 09:36:44;;;;;;;8.30;3.08;;;;;;;27.60;30.29;101888.84;4429254;32;20056;-69
2021/08/29 09:41:47;;;;;;;8.68;3.22;;;;;;;27.25;31.58;101895.25;3985353;32;15023707;-70
2021/08/29 09:44:16;;;;;;;12.23;3.67;;;;;;;27.25;31.58;101895.25;4435423;32;20092;-70
2021/08/29 09:49:27;;;;;;;11.55;3.30;;;;;;;27.36;31.49;101903.09;3986530;32;15027556;-70
2021/08/29 09:51:55;;;;;;;6.78;3.08;;;;;;;27.36;31.49;101903.09;4434948;32;20056;-70
2021/08/29 09:54:41;;;;;;;12.25;3.95;;;;;;;26.85;31.96;101902.28;4432972;32;20072;-70
2021/08/29 09:57:11;;;;;;;8.38;3.15;;;;;;;27.18;31.38;101901.50;4433125;32;20613;-70
2021/08/29 10:02:23;;;;;;;7.65;2.92;;;;;;;27.68;31.02;101901.44;3957697;32;15729138;-70
2021/08/29 10:08:07;;;;;;;10.13;3.15;;;;;;;27.59;31.09;101902.53;3966370;32;15022834;-71
2021/08/29 10:10:37;;;;;;;7.97;2.80;;;;;;;27.59;31.09;101902.53;4408698;32;20042;-69
2021/08/29 10:13:04;;;;;;;8.35;2.87;;;;;;;27.03;31.75;101909.69;4421641;32;20414;-69
2021/08/29 10:15:33;;;;;;;9.30;2.72;;;;;;;26.52;32.52;101907.22;4420927;32;20077;-69
2021/08/29 10:18:01;;;;;;;7.55;3.20;;;;;;;27.13;31.57;101908.09;4421645;32;21534;-69
2021/08/29 10:20:32;;;;;;;8.80;3.90;;;;;;;27.25;31.55;101897.34;4417388;32;20521;-69
2021/08/29 10:22:59;;;;;;;9.15;3.08;;;;;;;27.43;31.21;101903.34;4418790;32;20037;-69
2021/08/29 10:25:25;;;;;;;7.32;2.87;;;;;;;27.56;30.83;101906.47;4404849;32;20085;-69
2021/08/29 10:28:04;;;;;;;8.23;2.80;;;;;;;27.58;30.90;101900.94;4422040;32;20060;-70
2021/08/29 10:30:32;;;;;;;8.27;2.87;;;;;;;27.88;30.60;101901.91;4417938;32;20371;-69
2021/08/29 10:33:03;;;;;;;11.95;2.60;;;;;;;27.41;31.01;101903.09;4420860;32;20065;-70
2021/08/29 10:35:30;;;;;;;8.23;2.67;;;;;;;27.61;30.90;101894.09;4406684;32;20065;-69
2021/08/29 10:37:56;;;;;;;6.28;2.60;;;;;;;27.83;30.55;101904.81;4420948;32;20050;-70
2021/08/29 10:40:23;;;;;;;8.18;3.35;;;;;;;27.88;30.30;101898.22;4421251;32;20037;-70
2021/08/29 10:42:49;;;;;;;5.45;2.67;;;;;;;27.83;30.65;101896.12;4419450;32;20038;-70
2021/08/29 10:45:14;;;;;;;7.43;3.30;;;;;;;27.47;31.11;101900.97;4419306;32;20507;-70
2021/08/29 10:47:44;;;;;;;7.57;3.40;;;;;;;27.70;30.74;101890.91;4419795;32;20064;-70
2021/08/29 10:50:15;;;;;;;8.60;3.37;;;;;;;27.65;31.06;101906.19;4419632;32;20475;-70
2021/08/29 10:52:41;;;;;;;8.48;3.08;;;;;;;27.73;31.11;101907.19;4421858;32;20420;-70
2021/08/29 10:55:10;;;;;;;5.80;3.10;;;;;;;27.44;31.38;101907.81;4406983;32;20041;-70
2021/08/29 10:57:38;;;;;;;6.50;3.22;;;;;;;27.74;30.83;101899.31;4421146;32;20050;-70
2021/08/29 11:02:47;;;;;;;7.55;3.87;;;;;;;28.54;29.79;101909.50;4004909;31;15013460;-69
2021/08/29 11:05:16;;;;;;;10.75;3.42;;;;;;;28.54;29.79;101909.50;4452848;32;20467;-69
2021/08/29 11:07:45;;;;;;;7.85;2.65;;;;;;;28.45;29.65;101904.00;4465485;32;20033;-69
2021/08/29 11:10:13;;;;;;;8.07;3.17;;;;;;;28.74;29.40;101914.87;4467023;32;20083;-69
2021/08/29 11:12:39;;;;;;;8.50;2.85;;;;;;;28.71;29.21;101908.06;4466307;32;20064;-69
2021/08/29 11:15:08;;;;;;;5.95;3.33;;;;;;;29.00;28.77;101909.41;4468449;32;20397;-70
2021/08/29 11:17:37;;;;;;;12.05;3.12;;;;;;;29.16;28.41;101905.63;4470887;32;20067;-70
2021/08/29 11:22:42;;;;;;;8.73;3.42;;;;;;;30.45;26.55;101908.06;3956425;32;15724127;-70
2021/08/29 11:25:13;;;;;;;9.15;3.08;;;;;;;30.45;26.55;101908.06;4438927;32;20069;-70
2021/08/29 11:27:45;;;;;;;8.32;3.12;;;;;;;30.22;26.73;101909.69;4435241;32;20433;-70
2021/08/29 11:30:14;;;;;;;6.68;2.95;;;;;;;29.97;26.90;101898.69;4435798;32;20089;-70
2021/08/29 11:33:02;;;;;;;9.45;3.10;;;;;;;29.96;27.02;101903.69;4434266;32;20107;-70
2021/08/29 11:43:50;;;;;;;7.43;3.15;;;;;;;29.84;27.52;101899.38;3983579;32;15022484;-70
2021/08/29 11:51:34;;;;;;;9.07;3.28;;;;;;;30.14;27.40;101910.84;3984081;32;15029046;-68